Time;durP1;ratioP1;P1;durP2;ratioP2;P2;SDS_P1;SDS_P2;PMS_P1;PMS_P2;Temp;Humidity;BMP_temperature;BMP_pressure;BME280_temperature;BME280_humidity;BME280_pressure;Samples;Min_cycle;Max_cycle;Signal;HPM_P1;HPM_P2
2023/06/04 00:01:28;;;;;;;3.10;1.57;;;;;;;14.12;34.97;101022.53;5051976;28;20255;-59
2023/06/04 00:03:57;;;;;;;3.05;1.73;;;;;;;14.04;34.83;101006.22;5052937;28;20215;-59
2023/06/04 00:06:25;;;;;;;3.50;2.00;;;;;;;14.09;34.73;101014.78;5053699;28;20240;-59
2023/06/04 00:08:53;;;;;;;1.92;1.67;;;;;;;14.02;34.26;101011.38;5054618;28;20592;-59
2023/06/04 00:11:21;;;;;;;4.33;1.40;;;;;;;13.96;34.59;101020.09;5048610;28;20209;-59
2023/06/04 00:13:49;;;;;;;2.92;1.70;;;;;;;13.92;35.10;101012.38;5048035;28;20213;-59
2023/06/04 00:16:18;;;;;;;1.63;1.53;;;;;;;13.90;34.58;101009.78;5050125;28;20201;-59
2023/06/04 00:18:46;;;;;;;3.97;1.70;;;;;;;13.89;34.93;101023.63;5050424;28;20213;-60
2023/06/04 00:21:14;;;;;;;1.87;1.50;;;;;;;13.87;35.08;101015.00;5048825;28;20210;-60
2023/06/04 00:23:43;;;;;;;5.50;2.00;;;;;;;13.83;35.09;101007.28;5048891;28;20206;-62
2023/06/04 00:26:14;;;;;;;2.28;1.92;;;;;;;13.81;34.78;101009.88;5049409;28;20221;-61
2023/06/04 00:28:42;;;;;;;1.87;1.43;;;;;;;13.78;34.75;101009.91;5049066;28;20683;-59
2023/06/04 00:31:12;;;;;;;1.50;1.37;;;;;;;13.77;34.50;101011.66;5055544;28;20230;-59
2023/06/04 00:33:41;;;;;;;3.23;1.60;;;;;;;13.75;34.70;101015.13;5052543;28;20202;-59
2023/06/04 00:36:10;;;;;;;2.57;1.60;;;;;;;13.71;34.57;101005.66;5051387;28;20580;-58
2023/06/04 00:38:37;;;;;;;2.47;1.40;;;;;;;13.67;34.79;101015.19;5049084;28;20236;-58
2023/06/04 00:41:05;;;;;;;4.70;1.80;;;;;;;13.61;35.20;101011.78;5051560;28;20202;-58
2023/06/04 00:43:35;;;;;;;3.63;1.70;;;;;;;13.58;35.42;101012.66;5051344;28;20570;-60
2023/06/04 00:46:03;;;;;;;2.63;1.30;;;;;;;13.56;34.98;101010.97;5053028;28;20604;-59
2023/06/04 00:48:32;;;;;;;4.30;1.60;;;;;;;13.51;35.46;101005.81;5047927;28;20210;-60
2023/06/04 00:51:01;;;;;;;1.87;1.17;;;;;;;13.49;35.21;101011.00;5051955;28;20237;-58
2023/06/04 00:53:29;;;;;;;1.83;1.30;;;;;;;13.47;34.72;101010.16;5049552;28;20578;-60
2023/06/04 00:55:57;;;;;;;2.10;1.20;;;;;;;13.49;34.33;101011.00;5047563;28;20562;-59
2023/06/04 00:58:26;;;;;;;2.20;1.50;;;;;;;13.47;34.58;101010.16;5052238;28;20237;-59
2023/06/04 01:00:57;;;;;;;3.80;1.37;;;;;;;13.46;34.67;100999.81;5045917;28;20682;-59
2023/06/04 01:03:31;;;;;;;3.60;1.40;;;;;;;13.48;34.54;101006.72;5048952;28;20194;-59
2023/06/04 01:06:09;;;;;;;3.97;1.30;;;;;;;13.49;34.43;101002.41;5053637;28;20210;-64
2023/06/04 01:08:42;;;;;;;2.63;1.90;;;;;;;13.48;34.27;100998.94;5047275;28;20555;-59
2023/06/04 01:11:10;;;;;;;2.63;1.57;;;;;;;13.46;34.72;101008.44;5061237;28;20221;-59
2023/06/04 01:13:38;;;;;;;1.60;1.30;;;;;;;13.44;34.24;101002.44;5053114;28;20232;-60
2023/06/04 01:16:06;;;;;;;1.70;1.40;;;;;;;13.43;34.28;101002.44;5058986;28;20205;-59
2023/06/04 01:18:37;;;;;;;1.80;1.20;;;;;;;13.42;34.44;101006.75;5056588;28;20208;-59
2023/06/04 01:21:09;;;;;;;1.73;1.23;;;;;;;13.41;34.75;101005.03;5050148;28;20228;-58
2023/06/04 01:23:46;;;;;;;4.33;1.50;;;;;;;13.42;34.77;101005.91;5051546;28;20198;-60
2023/06/04 01:26:14;;;;;;;2.70;1.40;;;;;;;13.38;35.12;101005.06;5053103;28;20205;-60
2023/06/04 01:28:44;;;;;;;1.53;1.30;;;;;;;13.41;35.08;101011.97;5052099;28;20234;-60
2023/06/04 01:31:13;;;;;;;2.50;1.27;;;;;;;13.41;34.85;101005.03;5052132;28;20256;-58
2023/06/04 01:33:42;;;;;;;2.30;1.50;;;;;;;13.47;34.80;101004.97;5054249;28;20229;-59
2023/06/04 01:36:12;;;;;;;1.30;1.20;;;;;;;13.48;35.29;101001.53;5054626;28;20657;-58
2023/06/04 01:38:40;;;;;;;1.73;1.17;;;;;;;13.51;35.07;101005.81;5061666;28;20224;-58
2023/06/04 01:41:08;;;;;;;2.47;1.30;;;;;;;13.54;35.28;101004.06;5054144;28;20548;-58
2023/06/04 01:43:36;;;;;;;2.57;1.17;;;;;;;13.53;35.39;100998.91;5054614;28;20296;-61
2023/06/04 01:46:04;;;;;;;1.20;1.10;;;;;;;13.56;35.23;101009.25;5056350;28;20210;-60
2023/06/04 01:48:33;;;;;;;5.10;1.40;;;;;;;13.56;35.11;100998.88;5057131;28;20198;-60
2023/06/04 01:51:01;;;;;;;4.13;1.10;;;;;;;13.53;35.34;100996.31;5054584;28;20228;-59
2023/06/04 01:53:31;;;;;;;3.03;1.30;;;;;;;13.53;35.69;101002.34;5052537;28;20198;-60
2023/06/04 01:56:01;;;;;;;1.30;1.00;;;;;;;13.54;35.36;101001.47;5051677;28;20213;-61
2023/06/04 01:58:29;;;;;;;1.80;1.30;;;;;;;13.57;35.75;100997.16;5051041;28;20202;-59
2023/06/04 02:01:00;;;;;;;2.80;1.30;;;;;;;13.60;35.45;100995.41;5052960;28;20656;-59
2023/06/04 02:03:36;;;;;;;1.70;1.50;;;;;;;13.60;35.39;100991.94;5048146;28;20679;-61
2023/06/04 02:06:07;;;;;;;1.30;1.20;;;;;;;13.60;35.89;100994.53;5046346;28;20209;-60
2023/06/04 02:08:37;;;;;;;2.60;1.17;;;;;;;13.63;35.52;100991.94;5053513;28;20198;-59
2023/06/04 02:11:05;;;;;;;3.33;1.30;;;;;;;13.66;35.55;100991.88;5051071;28;20222;-58
2023/06/04 02:13:33;;;;;;;2.27;1.23;;;;;;;13.63;35.91;100994.50;5054310;28;20212;-59
2023/06/04 02:16:01;;;;;;;1.10;1.00;;;;;;;13.60;35.82;100995.41;5052458;28;20879;-59
2023/06/04 02:18:29;;;;;;;2.93;1.27;;;;;;;13.53;36.11;100992.00;5055245;28;20201;-58
2023/06/04 02:20:58;;;;;;;1.77;1.20;;;;;;;13.47;35.85;100991.19;5063160;28;20622;-60
2023/06/04 02:23:26;;;;;;;4.17;1.30;;;;;;;13.40;35.89;100992.09;5054206;28;20241;-61
2023/06/04 02:25:56;;;;;;;1.10;0.97;;;;;;;13.35;36.28;100996.47;5052082;28;20237;-59
2023/06/04 02:28:24;;;;;;;3.43;1.10;;;;;;;13.24;36.36;100987.03;5051827;28;20321;-60
2023/06/04 02:30:53;;;;;;;4.60;1.00;;;;;;;13.21;36.40;100991.34;5051341;28;20675;-59
2023/06/04 02:33:21;;;;;;;2.37;1.27;;;;;;;13.16;36.59;100993.13;5055154;28;20197;-60
2023/06/04 02:35:49;;;;;;;1.27;1.00;;;;;;;13.12;36.15;100999.19;5057782;28;20228;-59
2023/06/04 02:38:17;;;;;;;1.27;0.90;;;;;;;13.04;36.41;100989.75;5056674;28;20296;-59
2023/06/04 02:40:45;;;;;;;1.50;1.30;;;;;;;13.00;36.52;100987.19;5050601;28;20208;-59
2023/06/04 02:43:15;;;;;;;2.10;1.40;;;;;;;13.00;36.63;100992.38;5051276;28;20660;-60
2023/06/04 02:45:43;;;;;;;1.50;1.13;;;;;;;12.97;36.49;100993.25;5050574;28;20562;-63
2023/06/04 02:48:11;;;;;;;1.33;1.20;;;;;;;12.96;36.89;101001.00;5059027;28;20202;-59
2023/06/04 02:50:42;;;;;;;2.00;1.40;;;;;;;12.98;36.62;100999.28;5055472;28;20217;-59
2023/06/04 02:53:10;;;;;;;1.90;1.30;;;;;;;12.97;36.76;101003.59;5056422;28;20201;-58
2023/06/04 02:55:38;;;;;;;2.03;1.50;;;;;;;12.95;36.60;101002.72;5053569;28;20198;-58
2023/06/04 02:58:06;;;;;;;2.13;1.10;;;;;;;12.91;36.71;100988.09;5055625;28;20617;-59
2023/06/04 03:00:36;;;;;;;3.33;1.20;;;;;;;12.92;37.18;100994.97;5050562;28;20839;-59
2023/06/04 03:03:04;;;;;;;2.53;1.10;;;;;;;12.88;37.05;100997.59;5051803;28;20202;-59
2023/06/04 03:05:32;;;;;;;4.47;1.40;;;;;;;12.89;37.11;100995.03;5057420;28;20205;-59
2023/06/04 03:08:02;;;;;;;2.77;1.17;;;;;;;12.90;37.21;100994.16;5049639;28;20218;-60
2023/06/04 03:10:31;;;;;;;7.00;1.20;;;;;;;12.92;37.04;100999.28;5058089;28;20198;-59
2023/06/04 03:12:59;;;;;;;3.67;1.40;;;;;;;12.88;37.47;100993.28;5051574;28;20237;-61
2023/06/04 03:15:27;;;;;;;3.67;1.23;;;;;;;12.91;37.36;100993.28;5050338;28;20237;-58
2023/06/04 03:17:56;;;;;;;3.23;1.20;;;;;;;12.93;37.13;100996.72;5049483;28;20210;-60
2023/06/04 03:20:25;;;;;;;2.40;1.30;;;;;;;12.95;37.47;100997.56;5052497;28;20198;-58
2023/06/04 03:22:53;;;;;;;1.53;1.00;;;;;;;12.98;37.13;101005.31;5054458;28;20211;-59
2023/06/04 03:25:21;;;;;;;4.00;1.20;;;;;;;12.98;37.19;100994.94;5053715;28;20208;-60
2023/06/04 03:27:49;;;;;;;3.13;1.17;;;;;;;12.99;37.24;100998.41;5050636;28;20234;-60
2023/06/04 03:30:17;;;;;;;3.17;1.23;;;;;;;12.99;37.61;100999.25;5046961;28;20233;-60
2023/06/04 03:32:45;;;;;;;4.67;1.30;;;;;;;12.99;37.51;101000.97;5049424;28;20214;-58
2023/06/04 03:35:15;;;;;;;1.50;1.30;;;;;;;13.01;37.49;101000.09;5051982;28;20206;-59
2023/06/04 03:37:43;;;;;;;1.70;1.37;;;;;;;13.05;37.61;100996.63;5047666;28;20209;-58
2023/06/04 03:40:12;;;;;;;1.57;1.07;;;;;;;13.09;37.30;101001.78;5051301;28;20210;-59
2023/06/04 03:42:40;;;;;;;1.50;1.00;;;;;;;13.11;37.51;100998.34;5049836;28;20194;-59
2023/06/04 03:45:08;;;;;;;1.10;1.00;;;;;;;13.16;37.53;100998.28;5056081;28;20203;-59
2023/06/04 03:47:36;;;;;;;1.50;1.27;;;;;;;13.17;37.76;101000.00;5052964;28;20208;-59
2023/06/04 03:50:06;;;;;;;2.17;1.10;;;;;;;13.16;37.23;101003.47;5049605;28;20309;-59
2023/06/04 03:52:36;;;;;;;1.90;1.40;;;;;;;13.14;37.34;101011.22;5049640;28;20556;-61
2023/06/04 03:55:04;;;;;;;2.20;1.47;;;;;;;13.13;37.56;101001.75;5049517;28;20210;-58
2023/06/04 03:57:32;;;;;;;3.23;1.13;;;;;;;13.11;37.79;101005.22;5054840;28;20229;-59
2023/06/04 04:00:00;;;;;;;2.27;1.30;;;;;;;13.12;38.09;101006.94;5057624;28;20198;-59
2023/06/04 04:02:28;;;;;;;2.17;1.33;;;;;;;13.13;37.92;101008.66;5051790;28;20202;-60
2023/06/04 04:04:57;;;;;;;3.80;1.17;;;;;;;13.15;38.28;101012.13;5047356;28;20933;-58
2023/06/04 04:07:25;;;;;;;1.43;1.23;;;;;;;13.14;37.94;101011.22;5054368;28;20319;-59
2023/06/04 04:09:54;;;;;;;2.30;1.37;;;;;;;13.13;37.81;101009.50;5054928;28;20212;-59
2023/06/04 04:12:22;;;;;;;2.57;1.83;;;;;;;13.14;37.96;101006.06;5057621;28;20676;-58
2023/06/04 04:14:50;;;;;;;4.30;1.40;;;;;;;13.18;38.47;101009.47;5051450;28;20198;-59
2023/06/04 04:17:18;;;;;;;1.93;1.27;;;;;;;13.20;38.28;100998.25;5049232;28;20198;-59
2023/06/04 04:19:46;;;;;;;3.93;1.50;;;;;;;13.32;38.14;101002.50;5049376;28;20198;-59
2023/06/04 04:22:17;;;;;;;1.57;1.30;;;;;;;13.41;38.33;100999.88;5048943;28;20202;-58
2023/06/04 04:24:45;;;;;;;3.93;1.70;;;;;;;13.55;37.77;100997.19;5053097;28;20232;-60
2023/06/04 04:27:15;;;;;;;4.90;1.57;;;;;;;13.65;37.21;101005.69;5049545;28;20568;-58
2023/06/04 04:29:44;;;;;;;2.87;1.63;;;;;;;13.73;37.27;100998.72;5048812;28;20249;-59
2023/06/04 04:32:12;;;;;;;2.53;1.43;;;;;;;13.80;37.63;101002.13;5055319;28;20218;-58
2023/06/04 04:34:51;;;;;;;2.03;1.70;;;;;;;13.91;37.00;101001.13;5050557;28;20575;-58
2023/06/04 04:37:21;;;;;;;1.80;1.33;;;;;;;14.04;36.65;100999.28;5048327;28;20201;-57
2023/06/04 04:39:51;;;;;;;2.53;1.53;;;;;;;14.15;36.47;100999.19;5048917;28;20202;-58
2023/06/04 04:42:21;;;;;;;2.97;1.50;;;;;;;14.24;36.41;100992.13;5049412;28;20275;-59
2023/06/04 04:44:50;;;;;;;3.03;0.93;;;;;;;14.35;36.57;100997.19;5040805;28;20213;-59
2023/06/04 04:47:18;;;;;;;1.30;1.20;;;;;;;14.48;36.76;100993.59;5054802;28;20205;-58
2023/06/04 04:49:46;;;;;;;5.50;1.33;;;;;;;14.62;36.82;100993.47;5049452;28;20209;-58
2023/06/04 04:52:17;;;;;;;3.13;1.92;;;;;;;14.73;36.02;100993.31;5044658;28;20209;-64
2023/06/04 04:54:45;;;;;;;3.78;1.60;;;;;;;14.87;36.26;100991.38;5051871;28;20214;-58
2023/06/04 04:57:13;;;;;;;4.10;1.23;;;;;;;15.02;36.24;100992.03;5040354;28;20268;-59
2023/06/04 04:59:42;;;;;;;2.88;1.38;;;;;;;15.20;36.40;100994.34;5051260;28;20257;-58
2023/06/04 05:02:10;;;;;;;4.40;1.20;;;;;;;15.28;35.56;100992.50;5052766;28;20209;-59
2023/06/04 05:04:38;;;;;;;1.83;1.23;;;;;;;15.34;35.47;100995.00;5051852;28;20624;-60
2023/06/04 05:07:06;;;;;;;5.85;1.30;;;;;;;15.49;35.25;100985.25;5055793;28;20201;-59
2023/06/04 05:09:34;;;;;;;1.30;1.20;;;;;;;15.69;34.96;100988.41;5055956;28;20246;-59
2023/06/04 05:12:02;;;;;;;1.00;0.90;;;;;;;15.95;34.56;100982.72;5055758;28;20682;-63
2023/06/04 05:14:31;;;;;;;5.60;1.30;;;;;;;16.29;33.86;100988.13;5055987;28;20198;-62
2023/06/04 05:17:00;;;;;;;2.33;1.13;;;;;;;16.58;33.15;100992.72;5057799;28;20214;-64
2023/06/04 05:19:28;;;;;;;2.22;1.13;;;;;;;16.87;32.67;100986.94;5047030;28;20205;-63
2023/06/04 05:21:56;;;;;;;2.88;1.15;;;;;;;17.22;32.29;100989.59;5045847;28;20289;-61
2023/06/04 05:24:24;;;;;;;3.50;1.25;;;;;;;17.59;31.71;100989.53;5044690;28;20839;-61
2023/06/04 05:26:52;;;;;;;1.65;1.35;;;;;;;17.90;30.87;100981.84;5044705;28;20210;-61
2023/06/04 05:29:20;;;;;;;4.95;1.40;;;;;;;18.20;30.88;100981.88;5041686;28;20328;-62
2023/06/04 05:31:48;;;;;;;1.60;1.13;;;;;;;18.46;30.13;100978.53;5044726;28;20214;-63
2023/06/04 05:34:18;;;;;;;2.35;1.13;;;;;;;18.68;29.93;100981.34;5044378;28;20212;-63
2023/06/04 05:36:46;;;;;;;2.90;1.42;;;;;;;18.93;29.83;100982.34;5042277;28;20559;-63
2023/06/04 05:39:14;;;;;;;3.72;1.42;;;;;;;19.18;29.76;100987.63;5044220;28;20214;-61
2023/06/04 05:41:43;;;;;;;1.30;1.02;;;;;;;19.43;28.85;100976.38;5043557;28;20594;-63
2023/06/04 05:44:11;;;;;;;1.33;1.23;;;;;;;19.64;28.22;100980.06;5042786;28;20283;-63
2023/06/04 05:46:38;;;;;;;1.42;1.02;;;;;;;19.78;28.12;100975.22;5044143;28;20198;-62
2023/06/04 05:49:06;;;;;;;1.88;0.88;;;;;;;19.88;27.85;100978.34;5042516;28;20209;-63
2023/06/04 05:51:36;;;;;;;1.58;1.15;;;;;;;20.00;27.30;100980.56;5042675;28;20209;-63
2023/06/04 05:54:05;;;;;;;2.72;1.20;;;;;;;20.11;27.84;100985.41;5044020;28;20316;-61
2023/06/04 05:56:33;;;;;;;4.35;1.45;;;;;;;20.31;27.58;100977.66;5043233;28;20206;-62
2023/06/04 05:59:01;;;;;;;2.40;1.20;;;;;;;20.46;27.65;100981.47;5044557;28;20724;-63
2023/06/04 06:01:29;;;;;;;2.70;1.42;;;;;;;20.70;27.19;100987.59;5046907;28;20202;-61
2023/06/04 06:03:57;;;;;;;2.05;1.20;;;;;;;20.86;26.98;100987.84;5046107;28;20206;-61
2023/06/04 06:06:25;;;;;;;1.75;1.20;;;;;;;21.05;26.85;100982.72;5049432;28;20210;-62
2023/06/04 06:08:55;;;;;;;1.20;1.10;;;;;;;21.17;26.58;100979.59;5046341;28;20316;-62
2023/06/04 06:11:23;;;;;;;3.95;1.08;;;;;;;21.25;26.22;100981.94;5047104;28;20206;-62
2023/06/04 06:13:51;;;;;;;1.60;1.10;;;;;;;21.33;26.39;100985.09;5047808;28;20230;-62
2023/06/04 06:16:19;;;;;;;1.67;1.27;;;;;;;21.47;26.07;100990.66;5052274;28;20293;-61
2023/06/04 06:18:48;;;;;;;1.30;1.10;;;;;;;21.59;25.91;100995.38;5047354;28;20210;-61
2023/06/04 06:21:16;;;;;;;2.88;1.10;;;;;;;21.80;25.46;100992.75;5049745;28;20216;-63
2023/06/04 06:23:44;;;;;;;2.95;1.27;;;;;;;22.07;25.80;100986.31;5043835;28;20201;-61
2023/06/04 06:26:13;;;;;;;1.65;1.10;;;;;;;22.40;25.44;100978.72;5043365;28;20206;-62
2023/06/04 06:28:41;;;;;;;1.30;1.10;;;;;;;22.66;25.06;100989.78;5046531;28;20746;-61
2023/06/04 06:31:09;;;;;;;2.20;1.20;;;;;;;22.80;24.57;100983.88;5053981;28;20210;-61
2023/06/04 06:33:40;;;;;;;1.15;1.05;;;;;;;22.79;24.25;100995.31;5054837;28;20234;-61
2023/06/04 06:36:09;;;;;;;3.30;1.10;;;;;;;22.74;24.54;100997.31;5049634;28;20289;-60
2023/06/04 06:38:37;;;;;;;2.42;1.50;;;;;;;22.78;25.10;100985.72;5051052;28;20207;-61
2023/06/04 06:41:05;;;;;;;1.63;1.00;;;;;;;23.05;24.49;101002.84;5054777;28;20209;-62
2023/06/04 06:43:35;;;;;;;2.00;1.10;;;;;;;23.35;23.82;100997.03;5059006;28;20547;-61
2023/06/04 06:46:03;;;;;;;1.67;1.10;;;;;;;23.73;23.48;101000.38;5054634;28;20635;-64
2023/06/04 06:48:31;;;;;;;1.77;0.98;;;;;;;24.09;23.23;100997.63;5059725;28;20205;-62
2023/06/04 06:51:00;;;;;;;1.45;0.90;;;;;;;24.27;23.04;101000.22;5052292;28;20259;-63
2023/06/04 06:53:28;;;;;;;1.27;0.90;;;;;;;24.53;22.60;101004.09;5053855;28;20210;-62
2023/06/04 06:55:56;;;;;;;0.88;0.68;;;;;;;24.81;22.31;101000.78;5056640;28;20573;-62
2023/06/04 06:58:24;;;;;;;2.67;0.80;;;;;;;24.90;21.80;101012.63;5051755;28;20198;-60
2023/06/04 07:00:56;;;;;;;1.55;0.70;;;;;;;24.83;21.01;101006.84;5048159;28;20336;-62
2023/06/04 07:03:24;;;;;;;3.17;0.70;;;;;;;24.90;21.17;101004.72;5048266;28;20202;-61
2023/06/04 07:05:52;;;;;;;0.85;0.55;;;;;;;25.02;20.75;101010.13;5058813;28;20626;-62
2023/06/04 07:08:21;;;;;;;1.90;1.05;;;;;;;25.04;20.29;101010.06;5050421;28;20206;-62
2023/06/04 07:10:49;;;;;;;2.25;0.80;;;;;;;25.10;20.30;101003.56;5056490;28;20581;-61
2023/06/04 07:13:17;;;;;;;1.10;0.80;;;;;;;25.41;20.02;101006.19;5047887;28;20221;-61
2023/06/04 07:15:45;;;;;;;3.90;1.05;;;;;;;25.76;20.32;101011.16;5058672;28;20213;-62
2023/06/04 07:18:14;;;;;;;3.90;0.88;;;;;;;25.93;19.30;101003.13;5052068;28;20540;-61
2023/06/04 07:20:42;;;;;;;0.70;0.70;;;;;;;25.93;19.14;101005.75;5058685;28;20221;-61
2023/06/04 07:23:11;;;;;;;2.15;0.90;;;;;;;25.84;19.46;101002.81;5050214;28;20539;-63
2023/06/04 07:25:39;;;;;;;3.03;0.60;;;;;;;25.75;19.47;101001.56;5052980;28;20198;-61
2023/06/04 07:28:07;;;;;;;1.20;0.63;;;;;;;25.44;19.24;100998.09;5054642;28;20240;-61
2023/06/04 07:30:36;;;;;;;1.17;0.60;;;;;;;25.24;19.12;101008.94;5048575;28;20685;-62
2023/06/04 07:33:06;;;;;;;2.35;0.73;;;;;;;25.08;19.09;101008.09;5045828;28;20210;-61
2023/06/04 07:35:35;;;;;;;1.98;0.50;;;;;;;24.92;19.33;101003.66;5062875;28;20643;-61
2023/06/04 07:38:03;;;;;;;1.20;0.43;;;;;;;24.67;19.08;101008.59;5049361;28;20206;-62
2023/06/04 07:40:31;;;;;;;1.30;1.00;;;;;;;24.40;19.80;101006.53;5043792;28;20208;-62
2023/06/04 07:43:00;;;;;;;2.55;0.80;;;;;;;24.02;20.53;101009.41;5051029;28;20210;-62
2023/06/04 07:45:29;;;;;;;1.23;0.88;;;;;;;23.41;21.61;100999.31;5053241;28;20245;-62
2023/06/04 07:48:00;;;;;;;0.70;0.70;;;;;;;22.69;22.21;101000.16;5058121;28;20204;-61
2023/06/04 07:50:28;;;;;;;1.40;0.82;;;;;;;22.09;23.19;100994.97;5056720;28;20248;-63
2023/06/04 07:53:06;;;;;;;2.45;1.10;;;;;;;21.62;23.80;101005.75;5055475;28;20209;-63
2023/06/04 07:55:35;;;;;;;1.05;0.85;;;;;;;21.28;24.18;101005.38;5048667;28;20206;-63
2023/06/04 07:58:03;;;;;;;0.77;0.75;;;;;;;20.97;25.02;101007.47;5046803;28;20609;-63
2023/06/04 08:00:33;;;;;;;2.35;1.05;;;;;;;20.77;25.11;101009.13;5047625;28;20206;-62
2023/06/04 08:03:01;;;;;;;1.45;0.88;;;;;;;20.41;25.13;101014.84;5051187;28;20577;-65
2023/06/04 08:05:29;;;;;;;1.45;0.80;;;;;;;20.08;25.57;101007.31;5048455;28;20734;-61
2023/06/04 08:07:57;;;;;;;1.08;0.70;;;;;;;19.87;25.97;101015.91;5049623;28;20259;-62
2023/06/04 08:10:26;;;;;;;2.28;0.80;;;;;;;19.69;26.72;101015.59;5051277;28;20229;-61
2023/06/04 08:12:54;;;;;;;1.48;0.90;;;;;;;19.53;26.60;101014.38;5047081;28;20202;-63
2023/06/04 08:15:22;;;;;;;1.88;0.70;;;;;;;19.45;26.33;101014.66;5049468;28;20218;-63
2023/06/04 08:17:51;;;;;;;3.10;1.88;;;;;;;19.40;26.89;101005.22;5054987;28;20206;-63
2023/06/04 08:20:19;;;;;;;2.25;1.33;;;;;;;19.48;26.88;101003.25;5054294;28;20593;-63
2023/06/04 08:22:47;;;;;;;1.38;1.10;;;;;;;19.55;26.59;100996.88;5055907;28;20206;-63
2023/06/04 08:25:15;;;;;;;1.50;0.95;;;;;;;19.63;26.33;100994.91;5049758;28;20194;-63
2023/06/04 08:27:45;;;;;;;1.17;0.60;;;;;;;19.74;26.69;100997.16;5055860;28;20356;-61
2023/06/04 08:30:13;;;;;;;0.85;0.85;;;;;;;19.73;26.21;100993.66;5048820;28;20229;-62
2023/06/04 08:32:41;;;;;;;2.83;0.70;;;;;;;19.69;26.67;100994.69;5055315;28;20649;-62
2023/06/04 08:35:10;;;;;;;2.85;1.88;;;;;;;19.68;26.62;100990.38;5057262;28;20564;-63
2023/06/04 08:37:38;;;;;;;1.75;0.98;;;;;;;19.72;27.04;100989.34;5049525;28;20744;-63
2023/06/04 08:40:08;;;;;;;1.30;0.95;;;;;;;19.82;27.26;100991.66;5062877;28;20236;-62
2023/06/04 08:42:44;;;;;;;0.73;0.68;;;;;;;19.86;27.10;100986.28;5054122;28;20209;-62
2023/06/04 08:45:16;;;;;;;1.27;1.02;;;;;;;19.87;26.50;100989.75;5057781;28;20613;-63
2023/06/04 08:47:48;;;;;;;0.70;0.70;;;;;;;19.82;25.97;100978.59;5056699;28;20236;-62
2023/06/04 08:50:19;;;;;;;1.10;1.00;;;;;;;19.78;25.83;100981.31;5055486;28;20300;-60
2023/06/04 08:52:48;;;;;;;1.75;1.65;;;;;;;19.77;26.23;100984.84;5057852;28;20228;-62
2023/06/04 08:55:16;;;;;;;1.88;1.10;;;;;;;19.81;26.33;100982.97;5053306;28;20568;-61
2023/06/04 08:57:44;;;;;;;1.25;0.90;;;;;;;19.88;26.25;100986.22;5048712;28;20672;-63
2023/06/04 09:00:15;;;;;;;4.20;0.70;;;;;;;19.90;26.19;100980.03;5054547;28;20680;-62
2023/06/04 09:02:44;;;;;;;0.70;0.70;;;;;;;19.87;26.05;100980.13;5059092;28;20205;-62
2023/06/04 09:05:19;;;;;;;1.40;1.17;;;;;;;19.88;25.93;100976.59;5050423;28;20385;-63
2023/06/04 09:07:49;;;;;;;4.20;3.28;;;;;;;19.95;26.41;100979.84;5043761;28;20259;-62
2023/06/04 09:10:21;;;;;;;2.05;1.50;;;;;;;20.03;26.04;100986.53;5052181;28;20202;-63
2023/06/04 09:12:52;;;;;;;0.90;0.80;;;;;;;20.13;26.46;100987.03;5045672;28;20576;-62
2023/06/04 09:15:21;;;;;;;7.63;1.27;;;;;;;20.23;26.19;100988.41;5051398;28;20214;-63
2023/06/04 09:17:49;;;;;;;1.13;0.73;;;;;;;20.33;26.25;100977.63;5044931;28;20214;-61
2023/06/04 09:20:21;;;;;;;1.13;1.00;;;;;;;20.34;25.97;100984.56;5051544;28;20197;-61
2023/06/04 09:22:49;;;;;;;1.33;0.82;;;;;;;20.31;25.83;100985.53;5047142;28;20636;-60
2023/06/04 09:25:22;;;;;;;1.02;0.80;;;;;;;20.25;25.38;100976.16;5050734;28;20285;-61
2023/06/04 09:27:50;;;;;;;2.92;0.60;;;;;;;20.16;25.45;100973.84;5049970;28;20578;-62
2023/06/04 09:30:18;;;;;;;1.75;0.65;;;;;;;20.12;25.59;100976.66;5046008;28;20202;-61
2023/06/04 09:32:48;;;;;;;1.63;1.10;;;;;;;20.14;25.74;100973.06;5042944;28;20202;-59
2023/06/04 09:35:18;;;;;;;1.40;0.80;;;;;;;20.23;26.11;100972.72;5047028;28;20214;-60
2023/06/04 09:37:53;;;;;;;2.80;1.73;;;;;;;20.35;26.68;100966.16;5058614;28;20710;-66
2023/06/04 09:40:21;;;;;;;1.70;1.00;;;;;;;20.40;26.11;100958.13;5058074;28;20618;-67
2023/06/04 09:42:54;;;;;;;2.45;1.08;;;;;;;20.38;26.42;100965.22;5052218;28;20280;-62
2023/06/04 09:45:29;;;;;;;3.33;0.98;;;;;;;20.38;26.88;100960.81;5057671;28;20194;-63
2023/06/04 09:47:59;;;;;;;1.23;1.10;;;;;;;20.41;26.88;100962.50;5053510;28;20670;-64
2023/06/04 09:50:28;;;;;;;3.53;0.90;;;;;;;20.47;26.50;100964.84;5061115;28;20204;-62
2023/06/04 09:52:56;;;;;;;1.27;1.10;;;;;;;20.52;26.72;100970.81;5061466;28;20210;-62
2023/06/04 09:55:25;;;;;;;3.25;1.10;;;;;;;20.55;26.44;100967.25;5058654;28;20225;-64
2023/06/04 09:57:54;;;;;;;2.97;0.77;;;;;;;20.63;26.80;100966.03;5053090;28;20569;-71
2023/06/04 10:00:24;;;;;;;0.60;0.60;;;;;;;20.68;26.04;100961.44;5061349;28;20671;-66
2023/06/04 10:02:58;;;;;;;1.05;0.90;;;;;;;20.72;25.49;100954.31;5062002;28;20332;-66
2023/06/04 10:05:32;;;;;;;2.47;0.95;;;;;;;20.86;26.12;100961.66;5050821;28;20194;-64
2023/06/04 10:08:03;;;;;;;1.23;0.95;;;;;;;21.09;26.05;100948.47;5055836;28;20206;-66
2023/06/04 10:10:36;;;;;;;1.75;0.85;;;;;;;21.32;24.85;100944.03;5050752;28;20205;-67
2023/06/04 10:13:07;;;;;;;1.80;1.00;;;;;;;21.64;24.22;100940.94;5059265;28;20540;-66
2023/06/04 10:15:36;;;;;;;1.00;0.60;;;;;;;22.22;23.63;100936.69;5058927;28;20274;-66
2023/06/04 10:18:06;;;;;;;1.77;0.80;;;;;;;23.01;22.33;100932.94;5055786;28;20564;-66
2023/06/04 10:20:36;;;;;;;1.15;0.70;;;;;;;24.04;22.04;100925.94;5055886;28;20566;-67
2023/06/04 10:23:04;;;;;;;3.40;0.90;;;;;;;25.05;20.66;100925.56;5055028;28;20202;-66
2023/06/04 10:25:32;;;;;;;0.98;0.70;;;;;;;25.79;19.22;100921.25;5050560;28;20294;-67
2023/06/04 10:28:02;;;;;;;0.98;0.80;;;;;;;26.49;18.19;100927.44;5048061;28;20726;-67
2023/06/04 10:30:31;;;;;;;0.80;0.80;;;;;;;27.17;17.96;100921.25;5052006;28;21012;-63
2023/06/04 10:33:00;;;;;;;0.65;0.65;;;;;;;28.04;17.10;100925.00;5053500;28;20783;-61
2023/06/04 10:35:37;;;;;;;1.67;0.85;;;;;;;29.02;15.80;100912.59;5048753;28;20246;-62
2023/06/04 10:38:07;;;;;;;3.58;0.80;;;;;;;29.79;15.47;100915.56;5053451;28;20198;-62
2023/06/04 10:40:35;;;;;;;1.35;0.82;;;;;;;30.32;14.65;100910.44;5052998;28;20212;-62
2023/06/04 10:43:07;;;;;;;1.05;0.73;;;;;;;30.71;13.76;100909.97;5053607;28;20667;-62
2023/06/04 10:45:35;;;;;;;0.90;0.70;;;;;;;30.96;14.07;100911.47;5053352;28;20249;-62
2023/06/04 10:48:05;;;;;;;1.25;0.80;;;;;;;31.30;13.18;100912.16;5059842;28;20281;-61
2023/06/04 10:50:34;;;;;;;1.00;0.50;;;;;;;31.69;13.52;100910.56;5048247;28;20323;-61
2023/06/04 10:53:05;;;;;;;0.73;0.50;;;;;;;32.10;12.99;100913.25;5062706;28;20248;-62
2023/06/04 10:55:44;;;;;;;0.60;0.60;;;;;;;32.46;12.42;100903.84;5063682;28;20209;-62
2023/06/04 10:58:12;;;;;;;0.70;0.70;;;;;;;32.50;12.08;100920.41;5049697;28;20206;-61
2023/06/04 11:00:41;;;;;;;1.23;0.65;;;;;;;32.14;12.99;100910.19;5052242;28;20202;-64
2023/06/04 11:03:11;;;;;;;2.53;0.70;;;;;;;31.98;12.18;100907.19;5062847;28;20210;-62
2023/06/04 11:05:42;;;;;;;1.75;0.80;;;;;;;32.01;12.51;100906.09;5053412;28;20221;-68
2023/06/04 11:08:15;;;;;;;0.55;0.50;;;;;;;32.23;11.75;100901.38;5053563;28;20212;-67
2023/06/04 11:10:45;;;;;;;1.00;0.73;;;;;;;32.49;11.92;100911.56;5051458;28;20616;-67
2023/06/04 11:13:14;;;;;;;1.08;0.70;;;;;;;32.78;11.48;100906.25;5051167;28;20274;-65
2023/06/04 11:15:43;;;;;;;0.40;0.40;;;;;;;33.28;11.06;100900.72;5058044;28;20677;-66
2023/06/04 11:18:15;;;;;;;3.85;0.55;;;;;;;33.17;10.92;100899.06;5053487;28;20605;-67
2023/06/04 11:20:45;;;;;;;1.13;0.70;;;;;;;32.95;10.72;100900.19;5053198;28;20570;-67
2023/06/04 11:23:15;;;;;;;0.80;0.73;;;;;;;32.64;11.49;100894.16;5051350;28;20229;-64
2023/06/04 11:25:45;;;;;;;1.85;0.60;;;;;;;32.77;11.13;100893.03;5052815;28;20201;-61
2023/06/04 11:28:17;;;;;;;0.75;0.57;;;;;;;32.80;12.01;100904.25;5052458;28;20237;-61
2023/06/04 11:30:57;;;;;;;1.08;0.60;;;;;;;32.92;11.67;100896.97;5051915;28;20210;-62
2023/06/04 11:33:25;;;;;;;0.63;0.52;;;;;;;32.93;12.04;100895.97;5057126;28;20205;-61